Flight Track Log - Related Links

Times and Time Zones

All times are in EDT time to prevent confusion due to time zone crossing. See the AWI3725 flight status page for this flight to view local times or setup timezone preferences in your user account.

Time Position Orientation Groundspeed Altitude Reporting Facility
EDT Latitude Longitude Course Direction KTS MPH feet Rate Location/Type
Wed 12:49:45 PM 44.8281 -68.9117 226° Southwest 203 234 3,300  Level Boston Center
Wed 12:50:46 PM 44.7842 -68.9706 224° Southwest 212 244 5,900 2,115 Climbing Boston Center
Wed 12:51:00 PM 44.6108 -69.0783 222° Southwest  Level FlightAware Approximate
Wed 12:51:47 PM 44.7347 -69.0336 222° Southwest 228 262 7,600  Level Boston Center
Wed 12:52:00 PM 44.5436 -69.1623 222° Southwest  Level FlightAware Approximate
Wed 12:52:49 PM 44.6781 -69.1039 221° Southwest 257 296 9,900  Level Boston Center
Wed 12:53:00 PM 44.4779 -69.2484 226° Southwest  Level FlightAware Approximate
Wed 12:53:50 PM 44.6158 -69.1819 222° Southwest 291 335 11,700  Level Boston Center
Wed 12:54:00 PM 44.4105 -69.3447 226° Southwest  Level FlightAware Approximate
Wed 12:54:51 PM 44.5478 -69.2644 221° Southwest 315 362 13,500  Level Boston Center
Wed 12:55:52 PM 44.4803 -69.3489 222° Southwest 322 371 15,800 1,918 Climbing Boston Center
Wed 12:56:53 PM 44.4117 -69.4333 221° Southwest 323 372 17,400 1,820 Climbing Boston Center
Wed 12:57:54 PM 44.3425 -69.5189 222° Southwest 324 373 19,500 1,721 Climbing Boston Center
Wed 12:58:55 PM 44.2717 -69.6036 221° Southwest 328 377 20,900 1,279 Climbing Boston Center
Wed 12:59:56 PM 44.2011 -69.6908 222° Southwest 333 383 22,100 1,317 Climbing Boston Center
Wed 01:00:58 PM 44.1297 -69.7775 221° Southwest 338 389 23,600 1,366 Climbing Boston Center
Wed 01:01:59 PM 44.0586 -69.8628 221° Southwest 337 388 24,900 885 Climbing Boston Center
Wed 01:03:00 PM 43.9869 -69.9503 221° Southwest 338 389 25,400 590 Climbing Boston Center
Wed 01:04:01 PM 43.9111 -70.0381 220° Southwest 349 402 26,100 885 Climbing Boston Center
Wed 01:05:02 PM 43.8336 -70.1269 220° Southwest 355 409 27,200 1,073 Climbing Boston Center
Wed 01:06:04 PM 43.7611 -70.2186 222° Southwest 355 409 28,300 829 Climbing Boston Center
Wed 01:07:05 PM 43.6881 -70.3078 221° Southwest 354 407 28,900 738 Climbing Boston Center
Wed 01:08:06 PM 43.5981 -70.4089 219° Southwest 350 403 29,800 541 Climbing Boston Center
Wed 01:09:07 PM 43.5231 -70.4961 220° Southwest 351 404 30,000 98 Climbing Boston Center
Wed 01:10:08 PM 43.4456 -70.5892 221° Southwest 364 419 30,000  Level Boston Center
Wed 01:11:10 PM 43.3608 -70.6544 209° Southwest 362 417 30,000  Level Boston Center
Wed 01:12:11 PM 43.2700 -70.7117 205° Southwest 361 415 30,000  Level Boston Center
Wed 01:13:12 PM 43.1789 -70.7694 205° Southwest 361 415 30,000  Level Boston Center
Wed 01:14:14 PM 43.0867 -70.8289 205° Southwest 363 418 30,000  Level Boston Center
Wed 01:15:15 PM 42.9908 -70.8761 200° South 368 423 30,000  Level Boston Center
Wed 01:16:16 PM 42.8933 -70.9244 200° South 373 429 30,000  Level Boston Center
Wed 01:17:18 PM 42.7744 -70.9825 200° South 379 436 30,000  Level Boston Center
Wed 01:18:19 PM 42.6756 -71.0317 200° South 380 437 30,000  Level Boston Center
Wed 01:19:20 PM 42.5761 -71.0797 200° South 380 437 30,000  Level Boston Center
Wed 01:20:22 PM 42.4764 -71.1281 200° South 381 438 30,000  Level Boston Center
Wed 01:21:23 PM 42.4000 -71.2178 221° Southwest 377 434 30,000  Level Boston Center
Wed 01:22:25 PM 42.3597 -71.3525 248° West 382 440 30,000  Level Boston Center
Wed 01:23:26 PM 42.3172 -71.4911 248° West 383 441 30,000  Level Boston Center
Wed 01:24:27 PM 42.2758 -71.6250 247° West 385 443 30,000  Level Boston Center
Wed 01:25:29 PM 42.2344 -71.7572 247° West 385 443 30,000  Level Boston Center
Wed 01:26:30 PM 42.1931 -71.8900 247° West 385 443 30,000  Level Boston Center
Wed 01:27:32 PM 42.1522 -72.0244 248° West 385 443 30,000  Level Boston Center
Wed 01:28:33 PM 42.1017 -72.1878 247° West 390 449 30,000  Level Boston Center
Wed 01:29:35 PM 42.0578 -72.3217 246° West 391 450 30,000  Level Boston Center
Wed 01:30:36 PM 41.9881 -72.4350 230° Southwest 391 450 30,000  Level Boston Center
Wed 01:31:38 PM 41.9181 -72.5497 231° Southwest 396 456 30,000  Level Boston Center
Wed 01:32:39 PM 41.8472 -72.6664 231° Southwest 397 457 30,000  Level Boston Center
Wed 01:33:41 PM 41.7769 -72.7828 231° Southwest 400 460 30,000  Level Boston Center
Wed 01:34:42 PM 41.7047 -72.8981 230° Southwest 401 461 30,000  Level Boston Center
Wed 01:35:44 PM 41.6331 -73.0142 230° Southwest 402 463 30,000  Level Boston Center
Wed 01:36:45 PM 41.5628 -73.1294 231° Southwest 403 464 30,000  Level Boston Center
Wed 01:37:47 PM 41.4789 -73.2658 231° Southwest 398 458 30,000  Level Boston Center
Wed 01:38:48 PM 41.4097 -73.3764 230° Southwest 393 452 30,000  Level Boston Center
Wed 01:39:50 PM 41.3392 -73.4853 229° Southwest 392 451 30,000  Level Boston Center
Wed 01:40:51 PM 41.2708 -73.5972 231° Southwest 392 451 30,000  Level Boston Center
Wed 01:41:52 PM 41.2028 -73.7117 232° Southwest 392 451 30,000  Level Boston Center
Wed 01:42:54 PM 41.1336 -73.8258 231° Southwest 395 455 30,000  Level Boston Center
Wed 01:43:39 PM 41.0758 -73.9256 232° Southwest 407 468 30,000 -286 Level New York Center
Wed 01:44:39 PM 41.0036 -74.0458 232° Southwest 413 475 29,500 -915 Descending New York Center
Wed 01:45:37 PM 40.9294 -74.1711 232° Southwest 424 488 28,200 -756 Descending New York Center
Wed 01:46:38 PM 40.8617 -74.2803 231° Southwest 429 494 28,000 -96 Descending New York Center
Wed 01:47:42 PM 40.7892 -74.3972 231° Southwest 429 494 28,000  Level New York Center
Wed 01:48:39 PM 40.7167 -74.5219 233° Southwest 429 494 28,000  Level New York Center
Wed 01:49:38 PM 40.6439 -74.6411 231° Southwest 429 494 28,000 -205 Level New York Center
Wed 01:50:36 PM 40.5692 -74.7625 231° Southwest 429 494 27,600 -800 Descending New York Center
Wed 01:51:38 PM 40.4903 -74.8725 227° Southwest 429 494 26,400 -1,122 Descending New York Center
Wed 01:52:39 PM 40.4156 -74.9800 228° Southwest 424 488 25,300 -1,190 Descending New York Center
Wed 01:53:39 PM 40.3322 -75.1000 228° Southwest 412 474 24,000 -1,322 Descending New York Center
Wed 01:54:37 PM 40.2575 -75.2042 227° Southwest 401 461 22,700 -1,000 Descending New York Center
Wed 01:55:39 PM 40.1847 -75.3056 227° Southwest 396 456 22,000 -350 Descending New York Center
Wed 01:56:37 PM 40.1142 -75.4067 228° Southwest 396 456 22,000  Level New York Center
Wed 01:57:38 PM 40.0417 -75.5022 225° Southwest 390 449 22,000  Level New York Center
Wed 01:58:39 PM 39.9725 -75.6114 230° Southwest 390 449 22,000  Level New York Center
Wed 01:59:37 PM 39.9033 -75.7203 230° Southwest 396 456 22,000  Level New York Center
Wed 02:00:38 PM 39.8319 -75.8289 229° Southwest 401 461 22,000 -650 Level New York Center
Wed 02:01:37 PM 39.7603 -75.9450 231° Southwest 401 461 20,700 -1,613 Descending New York Center
Wed 02:02:37 PM 39.6914 -76.0425 227° Southwest 401 461 18,800 -2,132 Descending New York Center
Wed 02:03:38 PM 39.6261 -76.1483 231° Southwest 380 437 16,400 -1,967 Descending New York Center
Wed 02:04:39 PM 39.5700 -76.2356 230° Southwest 374 430 14,800 -1,811 Descending New York Center
Wed 02:05:24 PM 39.5167 -76.3333 235° Southwest 358 412 13,200 -1,920 Descending Potomac TRACON
Wed 02:06:19 PM 39.4500 -76.4167 224° Southwest 350 403 11,600 -1,617 Descending Potomac TRACON
Wed 02:07:19 PM 39.3667 -76.4833 212° Southwest 349 402 10,100 -842 Descending Potomac TRACON
Wed 02:08:13 PM 39.3000 -76.5500 218° Southwest 347 399 10,000 -50 Descending Potomac TRACON
Wed 02:09:19 PM 39.2167 -76.6333 218° Southwest 323 372 10,000  Level Potomac TRACON
Wed 02:10:19 PM 39.1500 -76.7000 218° Southwest 295 339 10,000  Level Potomac TRACON
Wed 02:11:19 PM 39.0833 -76.7500 210° Southwest 273 314 10,000 -400 Level Potomac TRACON
Wed 02:12:19 PM 39.0333 -76.8333 232° Southwest 273 314 9,200 -1,053 Descending Potomac TRACON
Wed 02:13:13 PM 38.9833 -76.8833 218° Southwest 263 303 8,000 -1,486 Descending Potomac TRACON
Wed 02:14:08 PM 38.9333 -76.9333 218° Southwest 271 312 6,500 -992 Descending Potomac TRACON
Wed 02:15:14 PM 38.8500 -76.9500 189° South 269 310 6,000 -857 Descending Potomac TRACON
Wed 02:16:14 PM 38.7667 -76.9500 180° South 257 296 4,700 -992 Descending Potomac TRACON
Wed 02:17:15 PM 38.7000 -76.9333 169° South 228 262 4,000 -365 Descending Potomac TRACON
Wed 02:18:09 PM 38.6500 -76.9333 180° South 193 222 4,000  Level Potomac TRACON
Wed 02:19:10 PM 38.6167 -76.9500 201° Southwest 192 221 4,000 -522 Level Potomac TRACON
Wed 02:20:04 PM 38.6167 -76.9833 270° West 178 205 3,000 -789 Descending Potomac TRACON
Wed 02:21:04 PM 38.6667 -77.0167 333° Northwest 152 175 2,500 -250 Descending Potomac TRACON
Wed 02:22:04 PM 38.7000 -77.0167 360° North 154 177 2,500 -250 Level Potomac TRACON
Wed 02:23:04 PM 38.7500 -77.0333 345° North 155 178 2,000 -595 Descending Potomac TRACON
Wed 02:24:05 PM 38.7833 -77.0333 360° North 161 185 1,300 -626 Descending Potomac TRACON
Wed 02:24:59 PM 38.8167 -77.0167 21° North 138 159 800 -556 Descending Potomac TRACON

Login

Don't have an account? Register now (free) for customized features, flight alerts, and more!